KLM767 TNCB-EHAM
Flight info
| Callsign | KLM767 |
|---|---|
| Flight time | N/A |
| Altitude | 37000 |
| Route | SCAPA L327 OPAUL/M082F390 DCT SIFEN DCT 37N050W 45N040W 49N030W 52N020W DCT MALOT/N0463F390 DCT GISTI DCT MOMIN DCT DAP DCT LIFFY DCT DOLAS L603 LAMSO |
| Aircraft | A332/H-SDE3GHIJ2J3J5M1RVWXY/LB2D1 |
Departure
| Time | N/A |
|---|---|
| Airport | Flamingo International Airport (TNCB) |
Arrival
| Time | 2026-05-04 11:53 |
|---|---|
| Airport | Amsterdam Airport Schiphol (EHAM) |
| Time | Latitude | Longitude | Altitude | Speed | Heading |
|---|---|---|---|---|---|
| 2026-05-04 10:30 | 53.47681 | -5.43545 | 37095 ft | 454 kts | 92° |
| 2026-05-04 10:31 | 53.47462 | -5.38205 | 37096 ft | 454 kts | 92° |
| 2026-05-04 10:32 | 53.45600 | -5.02982 | 37091 ft | 455 kts | 94° |
| 2026-05-04 10:33 | 53.44938 | -4.90688 | 37086 ft | 455 kts | 94° |
| 2026-05-04 10:33 | 53.44455 | -4.81832 | 37084 ft | 455 kts | 94° |
| 2026-05-04 10:34 | 53.43869 | -4.71258 | 37081 ft | 455 kts | 94° |
| 2026-05-04 10:34 | 53.43274 | -4.60693 | 37078 ft | 455 kts | 94° |
| 2026-05-04 10:35 | 53.42672 | -4.50184 | 37076 ft | 456 kts | 94° |
| 2026-05-04 10:35 | 53.42058 | -4.39618 | 37078 ft | 456 kts | 94° |
| 2026-05-04 10:36 | 53.41433 | -4.29047 | 37078 ft | 456 kts | 94° |
| 2026-05-04 10:36 | 53.40800 | -4.18481 | 37078 ft | 456 kts | 94° |
| 2026-05-04 10:37 | 53.40157 | -4.07912 | 37082 ft | 456 kts | 94° |
| 2026-05-04 10:37 | 53.39503 | -3.97328 | 37079 ft | 457 kts | 95° |
| 2026-05-04 10:39 | 53.37142 | -3.60321 | 37077 ft | 457 kts | 95° |
| 2026-05-04 10:40 | 53.36445 | -3.49735 | 37074 ft | 458 kts | 95° |
| 2026-05-04 10:40 | 53.35738 | -3.39144 | 37072 ft | 458 kts | 95° |
| 2026-05-04 10:41 | 53.35021 | -3.28547 | 37071 ft | 458 kts | 95° |
| 2026-05-04 10:41 | 53.34295 | -3.17954 | 37074 ft | 458 kts | 95° |
| 2026-05-04 10:42 | 53.33559 | -3.07361 | 37076 ft | 458 kts | 96° |
| 2026-05-04 10:42 | 53.32814 | -2.96764 | 37074 ft | 459 kts | 96° |
| 2026-05-04 10:43 | 53.32062 | -2.86214 | 37076 ft | 460 kts | 96° |
| 2026-05-04 10:45 | 53.28941 | -2.43798 | 37074 ft | 461 kts | 96° |
| 2026-05-04 10:45 | 53.28135 | -2.33171 | 37075 ft | 461 kts | 96° |
| 2026-05-04 10:46 | 53.27318 | -2.22532 | 37074 ft | 461 kts | 96° |
| 2026-05-04 10:46 | 53.26494 | -2.11920 | 37074 ft | 461 kts | 96° |
| 2026-05-04 10:47 | 53.25660 | -2.01306 | 37074 ft | 461 kts | 96° |
| 2026-05-04 10:47 | 53.24813 | -1.90664 | 37073 ft | 463 kts | 97° |
| 2026-05-04 10:49 | 53.21323 | -1.48004 | 37065 ft | 464 kts | 97° |
| 2026-05-04 10:50 | 53.20423 | -1.37316 | 37064 ft | 466 kts | 97° |
| 2026-05-04 10:52 | 53.16731 | -0.94623 | 37056 ft | 468 kts | 98° |
| 2026-05-04 10:52 | 53.15777 | -0.83881 | 37051 ft | 469 kts | 98° |
| 2026-05-04 10:54 | 53.11855 | -0.40871 | 37048 ft | 469 kts | 98° |
| 2026-05-04 10:56 | 53.07781 | 0.02043 | 37041 ft | 470 kts | 99° |
| 2026-05-04 10:57 | 53.06732 | 0.12823 | 37045 ft | 473 kts | 99° |
| 2026-05-04 10:57 | 53.05678 | 0.23555 | 37046 ft | 474 kts | 99° |
| 2026-05-04 10:58 | 53.04606 | 0.34357 | 37044 ft | 474 kts | 99° |
| 2026-05-04 10:58 | 53.03525 | 0.45152 | 37044 ft | 474 kts | 100° |
| 2026-05-04 10:59 | 53.02432 | 0.55957 | 37043 ft | 475 kts | 100° |
| 2026-05-04 10:59 | 53.01323 | 0.66819 | 37048 ft | 478 kts | 100° |
| 2026-05-04 11:00 | 53.00204 | 0.77690 | 37047 ft | 478 kts | 101° |
| 2026-05-04 11:02 | 52.95453 | 1.21122 | 37047 ft | 479 kts | 102° |
| 2026-05-04 11:05 | 52.85743 | 2.02094 | 35322 ft | 472 kts | 103° |
| 2026-05-04 11:06 | 52.85088 | 2.07398 | 34804 ft | 470 kts | 103° |
| 2026-05-04 11:06 | 52.84431 | 2.12688 | 34103 ft | 472 kts | 103° |
| 2026-05-04 11:06 | 52.83765 | 2.18026 | 33149 ft | 476 kts | 103° |
| 2026-05-04 11:06 | 52.83090 | 2.23409 | 32197 ft | 480 kts | 104° |
| 2026-05-04 11:08 | 52.78304 | 2.61096 | 27020 ft | 464 kts | 105° |
| 2026-05-04 11:10 | 52.73640 | 2.96659 | 22295 ft | 441 kts | 107° |
| 2026-05-04 11:12 | 52.63872 | 3.26274 | 17800 ft | 406 kts | 122° |
| 2026-05-04 11:12 | 52.62460 | 3.30269 | 17169 ft | 401 kts | 122° |
| 2026-05-04 11:12 | 52.61067 | 3.34207 | 16580 ft | 396 kts | 122° |
| 2026-05-04 11:12 | 52.59686 | 3.38108 | 15964 ft | 393 kts | 121° |
| 2026-05-04 11:13 | 52.58549 | 3.42164 | 15365 ft | 392 kts | 109° |
| 2026-05-04 11:13 | 52.57936 | 3.46457 | 14783 ft | 389 kts | 102° |
| 2026-05-04 11:13 | 52.57469 | 3.50826 | 14174 ft | 387 kts | 101° |
| 2026-05-04 11:13 | 52.57023 | 3.55180 | 13529 ft | 384 kts | 101° |
| 2026-05-04 11:14 | 52.55684 | 3.67933 | 11715 ft | 371 kts | 101° |
| 2026-05-04 11:16 | 52.52937 | 3.93236 | 10289 ft | 298 kts | 102° |
| 2026-05-04 11:16 | 52.52511 | 3.96557 | 9952 ft | 296 kts | 108° |
| 2026-05-04 11:16 | 52.51828 | 3.99747 | 9837 ft | 296 kts | 112° |
| 2026-05-04 11:17 | 52.51072 | 4.02884 | 9732 ft | 295 kts | 113° |
| 2026-05-04 11:17 | 52.50308 | 4.05996 | 9613 ft | 294 kts | 113° |
| 2026-05-04 11:19 | 52.45038 | 4.27457 | 8775 ft | 290 kts | 113° |
| 2026-05-04 11:19 | 52.44285 | 4.30516 | 8641 ft | 289 kts | 113° |
| 2026-05-04 11:19 | 52.43532 | 4.33566 | 8543 ft | 288 kts | 113° |
| 2026-05-04 11:19 | 52.42792 | 4.36561 | 8433 ft | 287 kts | 113° |
| 2026-05-04 11:20 | 52.42044 | 4.39587 | 8301 ft | 287 kts | 113° |
| 2026-05-04 11:20 | 52.41284 | 4.42655 | 8183 ft | 286 kts | 113° |
| 2026-05-04 11:20 | 52.40790 | 4.44649 | 8107 ft | 286 kts | 113° |
| 2026-05-04 11:20 | 52.40043 | 4.47660 | 7999 ft | 285 kts | 113° |
| 2026-05-04 11:22 | 52.34825 | 4.68565 | 7171 ft | 277 kts | 112° |
| 2026-05-04 11:22 | 52.34109 | 4.71419 | 7060 ft | 266 kts | 113° |
| 2026-05-04 11:23 | 52.33387 | 4.74097 | 6984 ft | 255 kts | 120° |
| 2026-05-04 11:23 | 52.32315 | 4.76324 | 6778 ft | 249 kts | 136° |
| 2026-05-04 11:24 | 52.24685 | 4.87344 | 5294 ft | 240 kts | 139° |
| 2026-05-04 11:25 | 52.23415 | 4.89109 | 5058 ft | 239 kts | 144° |
| 2026-05-04 11:25 | 52.21930 | 4.90235 | 4836 ft | 236 kts | 170° |
| 2026-05-04 11:25 | 52.20301 | 4.90378 | 4593 ft | 234 kts | 182° |
| 2026-05-04 11:26 | 52.17058 | 4.90051 | 4140 ft | 232 kts | 184° |
| 2026-05-04 11:27 | 52.11478 | 4.79865 | 2581 ft | 229 kts | 303° |
| 2026-05-04 11:28 | 52.12524 | 4.77913 | 2371 ft | 230 kts | 316° |
| 2026-05-04 11:28 | 52.13891 | 4.76614 | 2142 ft | 229 kts | 342° |
| 2026-05-04 11:28 | 52.15449 | 4.76376 | 2005 ft | 228 kts | 0° |
| 2026-05-04 11:28 | 52.16994 | 4.76511 | 1983 ft | 215 kts | 2° |
| 2026-05-04 11:29 | 52.18443 | 4.76680 | 1984 ft | 204 kts | 3° |
| 2026-05-04 11:29 | 52.19849 | 4.76840 | 1996 ft | 202 kts | 3° |
| 2026-05-04 11:29 | 52.21251 | 4.76988 | 1992 ft | 202 kts | 2° |
| 2026-05-04 11:29 | 52.22656 | 4.77129 | 1989 ft | 202 kts | 2° |
| 2026-05-04 11:31 | 52.32491 | 4.78051 | 1995 ft | 202 kts | 2° |
| 2026-05-04 11:33 | 52.42321 | 4.78967 | 1987 ft | 202 kts | 2° |
| 2026-05-04 11:33 | 52.43719 | 4.79097 | 1987 ft | 201 kts | 3° |
| 2026-05-04 11:33 | 52.45118 | 4.79228 | 1989 ft | 202 kts | 3° |
| 2026-05-04 11:34 | 52.46523 | 4.79361 | 1988 ft | 202 kts | 2° |
| 2026-05-04 11:34 | 52.47929 | 4.79494 | 1991 ft | 202 kts | 3° |
| 2026-05-04 11:34 | 52.49314 | 4.79624 | 1992 ft | 202 kts | 3° |
| 2026-05-04 11:34 | 52.50714 | 4.79757 | 1991 ft | 202 kts | 3° |
| 2026-05-04 11:35 | 52.52117 | 4.79891 | 1991 ft | 202 kts | 3° |
| 2026-05-04 11:35 | 52.53520 | 4.80026 | 1991 ft | 202 kts | 3° |
| 2026-05-04 11:35 | 52.54923 | 4.80162 | 1989 ft | 202 kts | 4° |
| 2026-05-04 11:35 | 52.56321 | 4.80286 | 1987 ft | 201 kts | 356° |
| 2026-05-04 11:36 | 52.57671 | 4.79763 | 1993 ft | 200 kts | 333° |
| 2026-05-04 11:36 | 52.58688 | 4.78265 | 1994 ft | 197 kts | 298° |
| 2026-05-04 11:36 | 52.58968 | 4.76119 | 2002 ft | 194 kts | 268° |
| 2026-05-04 11:36 | 52.58851 | 4.73904 | 2002 ft | 195 kts | 262° |
| 2026-05-04 11:37 | 52.58627 | 4.71702 | 2005 ft | 195 kts | 253° |
| 2026-05-04 11:37 | 52.58016 | 4.69741 | 2007 ft | 193 kts | 228° |
| 2026-05-04 11:37 | 52.56917 | 4.68541 | 1986 ft | 192 kts | 194° |
| 2026-05-04 11:37 | 52.55587 | 4.68464 | 2002 ft | 193 kts | 174° |
| 2026-05-04 11:38 | 52.54257 | 4.68804 | 1999 ft | 194 kts | 170° |
| 2026-05-04 11:38 | 52.52923 | 4.69215 | 1998 ft | 195 kts | 169° |
| 2026-05-04 11:38 | 52.51594 | 4.69626 | 1996 ft | 195 kts | 170° |
| 2026-05-04 11:38 | 52.50262 | 4.70029 | 1999 ft | 194 kts | 170° |
| 2026-05-04 11:39 | 52.48937 | 4.70435 | 1998 ft | 193 kts | 169° |
| 2026-05-04 11:39 | 52.47617 | 4.70865 | 1998 ft | 193 kts | 169° |
| 2026-05-04 11:40 | 52.38816 | 4.73630 | 2003 ft | 258 kts | 170° |
| 2026-05-04 11:41 | 52.36988 | 4.74162 | 2009 ft | 275 kts | 171° |
| 2026-05-04 11:41 | 52.35116 | 4.74667 | 2001 ft | 271 kts | 173° |
| 2026-05-04 11:41 | 52.33334 | 4.75370 | 1993 ft | 259 kts | 158° |
| 2026-05-04 11:41 | 52.31842 | 4.76950 | 2001 ft | 247 kts | 143° |
| 2026-05-04 11:42 | 52.30581 | 4.78702 | 1991 ft | 236 kts | 140° |
| 2026-05-04 11:42 | 52.29383 | 4.80448 | 2001 ft | 225 kts | 140° |
| 2026-05-04 11:42 | 52.28239 | 4.82122 | 1995 ft | 216 kts | 140° |
| 2026-05-04 11:42 | 52.27144 | 4.83722 | 1993 ft | 206 kts | 139° |
| 2026-05-04 11:43 | 52.26100 | 4.85252 | 1995 ft | 198 kts | 139° |
| 2026-05-04 11:43 | 52.25084 | 4.86756 | 2000 ft | 197 kts | 139° |
| 2026-05-04 11:43 | 52.24074 | 4.88263 | 1997 ft | 197 kts | 139° |
| 2026-05-04 11:43 | 52.23004 | 4.89645 | 1999 ft | 196 kts | 151° |
| 2026-05-04 11:44 | 52.21777 | 4.90349 | 2007 ft | 179 kts | 175° |
| 2026-05-04 11:44 | 52.20593 | 4.90386 | 2000 ft | 163 kts | 184° |
| 2026-05-04 11:44 | 52.19486 | 4.90296 | 1996 ft | 158 kts | 183° |
| 2026-05-04 11:44 | 52.18389 | 4.90222 | 1998 ft | 158 kts | 183° |
| 2026-05-04 11:45 | 52.17290 | 4.90144 | 2001 ft | 158 kts | 185° |
| 2026-05-04 11:45 | 52.16188 | 4.90044 | 1996 ft | 159 kts | 185° |
| 2026-05-04 11:45 | 52.15073 | 4.89942 | 2003 ft | 162 kts | 183° |
| 2026-05-04 11:45 | 52.13896 | 4.89803 | 2011 ft | 174 kts | 186° |
| 2026-05-04 11:46 | 52.12759 | 4.89408 | 1987 ft | 162 kts | 201° |
| 2026-05-04 11:46 | 52.11803 | 4.88489 | 1999 ft | 159 kts | 221° |
| 2026-05-04 11:46 | 52.11128 | 4.87084 | 1999 ft | 158 kts | 243° |
| 2026-05-04 11:46 | 52.10827 | 4.85378 | 2004 ft | 157 kts | 263° |
| 2026-05-04 11:47 | 52.10827 | 4.83605 | 1999 ft | 157 kts | 271° |
| 2026-05-04 11:47 | 52.10952 | 4.81839 | 1996 ft | 158 kts | 281° |
| 2026-05-04 11:47 | 52.11362 | 4.80188 | 1998 ft | 159 kts | 300° |
| 2026-05-04 11:47 | 52.12048 | 4.78778 | 1993 ft | 159 kts | 311° |
| 2026-05-04 11:48 | 52.12844 | 4.77518 | 1998 ft | 160 kts | 320° |
| 2026-05-04 11:48 | 52.13811 | 4.76716 | 1992 ft | 153 kts | 343° |
| 2026-05-04 11:48 | 52.14852 | 4.76497 | 1996 ft | 151 kts | 356° |
| 2026-05-04 11:48 | 52.15895 | 4.76538 | 1997 ft | 150 kts | 0° |
| 2026-05-04 11:49 | 52.16942 | 4.76626 | 2006 ft | 151 kts | 2° |
| 2026-05-04 11:49 | 52.17986 | 4.76724 | 2001 ft | 150 kts | 0° |
| 2026-05-04 11:49 | 52.19030 | 4.76815 | 1984 ft | 150 kts | 1° |
| 2026-05-04 11:49 | 52.20071 | 4.76902 | 1812 ft | 149 kts | 1° |
| 2026-05-04 11:50 | 52.21103 | 4.76995 | 1593 ft | 145 kts | 2° |
| 2026-05-04 11:50 | 52.22072 | 4.77090 | 1390 ft | 134 kts | 0° |
| 2026-05-04 11:50 | 52.22972 | 4.77169 | 1195 ft | 126 kts | 1° |
| 2026-05-04 11:50 | 52.23842 | 4.77245 | 1057 ft | 125 kts | 1° |
| 2026-05-04 11:51 | 52.24710 | 4.77312 | 908 ft | 124 kts | 0° |
| 2026-05-04 11:51 | 52.25572 | 4.77364 | 760 ft | 123 kts | 1° |
| 2026-05-04 11:51 | 52.26423 | 4.77474 | 591 ft | 123 kts | 4° |
| 2026-05-04 11:51 | 52.27267 | 4.77566 | 421 ft | 120 kts | 4° |
| 2026-05-04 11:52 | 52.28099 | 4.77631 | 246 ft | 120 kts | 4° |
| 2026-05-04 11:52 | 52.28915 | 4.77708 | 81 ft | 118 kts | 3° |
| 2026-05-04 11:52 | 52.29716 | 4.77787 | 3 ft | 107 kts | 4° |
| 2026-05-04 11:52 | 52.30293 | 4.77847 | 5 ft | 54 kts | 3° |
| 2026-05-04 11:53 | 52.30491 | 4.77864 | 4 ft | 18 kts | 4° |
| 2026-05-04 11:53 | 52.30622 | 4.77876 | 3 ft | 20 kts | 3° |
| 2026-05-04 11:53 | 52.30789 | 4.77888 | 0 ft | 26 kts | 359° |
| 2026-05-04 11:53 | 52.30956 | 4.77803 | 1 ft | 22 kts | 334° |
| 2026-05-04 11:55 | 52.31572 | 4.77405 | 3 ft | 14 kts | 286° |
| 2026-05-04 11:55 | 52.31572 | 4.77239 | 3 ft | 16 kts | 268° |
| 2026-05-04 11:56 | 52.31566 | 4.77047 | 3 ft | 18 kts | 267° |
| 2026-05-04 11:56 | 52.31559 | 4.76849 | 3 ft | 16 kts | 267° |
| 2026-05-04 11:56 | 52.31548 | 4.76706 | 3 ft | 11 kts | 239° |
| 2026-05-04 11:56 | 52.31479 | 4.76670 | 3 ft | 10 kts | 195° |
| 2026-05-04 11:57 | 52.31410 | 4.76604 | 3 ft | 13 kts | 213° |
| 2026-05-04 11:57 | 52.31339 | 4.76529 | 3 ft | 12 kts | 213° |
| 2026-05-04 11:57 | 52.31270 | 4.76459 | 3 ft | 8 kts | 204° |
| 2026-05-04 11:57 | 52.31234 | 4.76489 | 3 ft | 6 kts | 127° |
| 2026-05-04 11:58 | 52.31219 | 4.76528 | 3 ft | 2 kts | 123° |
| 2026-05-04 11:58 | 52.31206 | 4.76561 | 3 ft | 3 kts | 123° |
| 2026-05-04 11:58 | 52.31203 | 4.76568 | 3 ft | 0 kts | 123° |